sensor_id;sensor_type;location;lat;lon;timestamp;pressure;altitude;pressure_sealevel;temperature;humidity
67373;BME280;54257;54.496;18.412;2023-05-24T00:00:36;99570.89;;;17.71;60.03
67373;BME280;54257;54.496;18.412;2023-05-24T00:03:22;99573.52;;;17.68;60.28
67373;BME280;54257;54.496;18.412;2023-05-24T00:05:49;99572.17;;;17.65;60.54
67373;BME280;54257;54.496;18.412;2023-05-24T00:08:17;99572.21;;;17.63;60.79
67373;BME280;54257;54.496;18.412;2023-05-24T00:10:44;99575.04;;;17.60;60.80
67373;BME280;54257;54.496;18.412;2023-05-24T00:13:12;99583.34;;;17.59;60.89
67373;BME280;54257;54.496;18.412;2023-05-24T00:15:41;99581.61;;;17.58;61.06
67373;BME280;54257;54.496;18.412;2023-05-24T00:18:08;99581.96;;;17.59;60.97
67373;BME280;54257;54.496;18.412;2023-05-24T00:20:34;99581.10;;;17.59;61.14
67373;BME280;54257;54.496;18.412;2023-05-24T00:23:02;99576.27;;;17.58;61.39
67373;BME280;54257;54.496;18.412;2023-05-24T00:25:29;99581.28;;;17.58;61.36
67373;BME280;54257;54.496;18.412;2023-05-24T00:27:59;99580.80;;;17.56;61.58
67373;BME280;54257;54.496;18.412;2023-05-24T00:30:26;99584.68;;;17.52;62.00
67373;BME280;54257;54.496;18.412;2023-05-24T00:32:55;99587.20;;;17.46;62.23
67373;BME280;54257;54.496;18.412;2023-05-24T00:35:22;99588.10;;;17.45;62.25
67373;BME280;54257;54.496;18.412;2023-05-24T00:37:49;99583.09;;;17.45;62.31
67373;BME280;54257;54.496;18.412;2023-05-24T00:40:16;99583.77;;;17.45;62.60
67373;BME280;54257;54.496;18.412;2023-05-24T00:42:43;99582.23;;;17.44;62.98
67373;BME280;54257;54.496;18.412;2023-05-24T00:45:10;99581.11;;;17.39;63.62
67373;BME280;54257;54.496;18.412;2023-05-24T00:47:37;99579.50;;;17.32;63.88
67373;BME280;54257;54.496;18.412;2023-05-24T00:50:06;99562.81;;;17.29;63.77
67373;BME280;54257;54.496;18.412;2023-05-24T00:52:35;99557.11;;;17.29;64.23
67373;BME280;54257;54.496;18.412;2023-05-24T00:55:02;99561.40;;;17.30;64.30
67373;BME280;54257;54.496;18.412;2023-05-24T00:57:29;99561.23;;;17.30;64.59
67373;BME280;54257;54.496;18.412;2023-05-24T00:59:57;99561.23;;;17.30;64.20
67373;BME280;54257;54.496;18.412;2023-05-24T01:02:26;99561.95;;;17.29;64.17
67373;BME280;54257;54.496;18.412;2023-05-24T01:04:54;99562.17;;;17.25;64.28
67373;BME280;54257;54.496;18.412;2023-05-24T01:07:53;99554.95;;;17.23;64.81
67373;BME280;54257;54.496;18.412;2023-05-24T01:10:31;99553.24;;;17.23;64.77
67373;BME280;54257;54.496;18.412;2023-05-24T01:15:56;99552.62;;;17.20;64.70
67373;BME280;54257;54.496;18.412;2023-05-24T01:18:30;99547.46;;;17.18;64.54
67373;BME280;54257;54.496;18.412;2023-05-24T01:21:15;99545.25;;;17.16;64.93
67373;BME280;54257;54.496;18.412;2023-05-24T01:27:04;99551.59;;;16.98;65.12
67373;BME280;54257;54.496;18.412;2023-05-24T01:29:34;99559.31;;;16.90;65.55
67373;BME280;54257;54.496;18.412;2023-05-24T01:32:02;99559.38;;;16.85;65.89
67373;BME280;54257;54.496;18.412;2023-05-24T01:34:29;99567.23;;;16.79;66.25
67373;BME280;54257;54.496;18.412;2023-05-24T01:36:56;99569.61;;;16.71;66.34
67373;BME280;54257;54.496;18.412;2023-05-24T01:39:25;99569.95;;;16.68;66.52
67373;BME280;54257;54.496;18.412;2023-05-24T01:45:06;99572.55;;;16.69;66.89
67373;BME280;54257;54.496;18.412;2023-05-24T01:47:47;99567.23;;;16.65;66.69
67373;BME280;54257;54.496;18.412;2023-05-24T01:50:25;99566.80;;;16.59;66.97
67373;BME280;54257;54.496;18.412;2023-05-24T01:52:56;99571.10;;;16.60;67.11
67373;BME280;54257;54.496;18.412;2023-05-24T01:55:25;99569.38;;;16.60;67.15
67373;BME280;54257;54.496;18.412;2023-05-24T01:57:57;99572.30;;;16.61;67.06
67373;BME280;54257;54.496;18.412;2023-05-24T02:00:27;99572.09;;;16.64;67.19
67373;BME280;54257;54.496;18.412;2023-05-24T02:02:56;99569.81;;;16.66;67.27
67373;BME280;54257;54.496;18.412;2023-05-24T02:05:23;99565.65;;;16.67;67.09
67373;BME280;54257;54.496;18.412;2023-05-24T02:07:51;99567.89;;;16.67;67.22
67373;BME280;54257;54.496;18.412;2023-05-24T02:10:18;99571.00;;;16.68;67.24
67373;BME280;54257;54.496;18.412;2023-05-24T02:12:45;99573.77;;;16.70;67.23
67373;BME280;54257;54.496;18.412;2023-05-24T02:15:12;99573.23;;;16.72;67.16
67373;BME280;54257;54.496;18.412;2023-05-24T02:17:41;99574.23;;;16.73;67.11
67373;BME280;54257;54.496;18.412;2023-05-24T02:20:09;99573.54;;;16.73;67.18
67373;BME280;54257;54.496;18.412;2023-05-24T02:22:36;99580.26;;;16.73;67.15
67373;BME280;54257;54.496;18.412;2023-05-24T02:25:03;99580.14;;;16.70;67.81
67373;BME280;54257;54.496;18.412;2023-05-24T02:27:30;99575.70;;;16.65;67.61
67373;BME280;54257;54.496;18.412;2023-05-24T02:29:57;99579.19;;;16.63;67.60
67373;BME280;54257;54.496;18.412;2023-05-24T02:32:24;99583.65;;;16.64;67.44
67373;BME280;54257;54.496;18.412;2023-05-24T02:34:51;99585.05;;;16.62;67.78
67373;BME280;54257;54.496;18.412;2023-05-24T02:37:17;99587.30;;;16.61;67.61
67373;BME280;54257;54.496;18.412;2023-05-24T02:39:46;99586.97;;;16.60;67.41
67373;BME280;54257;54.496;18.412;2023-05-24T02:42:13;99590.58;;;16.60;67.32
67373;BME280;54257;54.496;18.412;2023-05-24T02:44:39;99587.33;;;16.59;67.31
67373;BME280;54257;54.496;18.412;2023-05-24T02:47:08;99588.86;;;16.60;67.16
67373;BME280;54257;54.496;18.412;2023-05-24T02:49:34;99590.58;;;16.62;66.89
67373;BME280;54257;54.496;18.412;2023-05-24T02:52:02;99592.30;;;16.62;66.82
67373;BME280;54257;54.496;18.412;2023-05-24T02:54:29;99591.44;;;16.61;66.50
67373;BME280;54257;54.496;18.412;2023-05-24T02:56:56;99590.06;;;16.61;66.46
67373;BME280;54257;54.496;18.412;2023-05-24T02:59:24;99594.90;;;16.60;66.32
67373;BME280;54257;54.496;18.412;2023-05-24T03:01:51;99596.11;;;16.60;66.40
67373;BME280;54257;54.496;18.412;2023-05-24T03:04:18;99600.52;;;16.54;67.13
67373;BME280;54257;54.496;18.412;2023-05-24T03:06:48;99604.23;;;16.46;67.01
67373;BME280;54257;54.496;18.412;2023-05-24T03:09:15;99602.45;;;16.38;67.29
67373;BME280;54257;54.496;18.412;2023-05-24T03:11:42;99603.07;;;16.30;68.06
67373;BME280;54257;54.496;18.412;2023-05-24T03:14:09;99599.68;;;16.24;68.13
67373;BME280;54257;54.496;18.412;2023-05-24T03:16:44;99599.38;;;16.22;67.99
67373;BME280;54257;54.496;18.412;2023-05-24T03:19:11;99599.73;;;16.22;68.10
67373;BME280;54257;54.496;18.412;2023-05-24T03:21:38;99599.53;;;16.23;68.22
67373;BME280;54257;54.496;18.412;2023-05-24T03:24:09;99603.79;;;16.26;67.98
67373;BME280;54257;54.496;18.412;2023-05-24T03:26:36;99607.74;;;16.27;67.75
67373;BME280;54257;54.496;18.412;2023-05-24T03:29:12;99606.86;;;16.29;67.76
67373;BME280;54257;54.496;18.412;2023-05-24T03:31:39;99607.73;;;16.29;67.75
67373;BME280;54257;54.496;18.412;2023-05-24T03:34:08;99608.40;;;16.32;67.70
67373;BME280;54257;54.496;18.412;2023-05-24T03:36:40;99607.19;;;16.31;67.86
67373;BME280;54257;54.496;18.412;2023-05-24T03:39:13;99611.65;;;16.33;67.90
67373;BME280;54257;54.496;18.412;2023-05-24T03:41:40;99612.64;;;16.36;67.93
67373;BME280;54257;54.496;18.412;2023-05-24T03:44:08;99611.39;;;16.40;67.96
67373;BME280;54257;54.496;18.412;2023-05-24T03:46:36;99607.23;;;16.42;68.02
67373;BME280;54257;54.496;18.412;2023-05-24T03:49:03;99607.23;;;16.42;67.85
67373;BME280;54257;54.496;18.412;2023-05-24T03:51:30;99609.83;;;16.40;67.84
67373;BME280;54257;54.496;18.412;2023-05-24T03:54:00;99607.24;;;16.40;67.73
67373;BME280;54257;54.496;18.412;2023-05-24T03:56:29;99605.33;;;16.42;67.60
67373;BME280;54257;54.496;18.412;2023-05-24T03:58:57;99607.18;;;16.44;67.65
67373;BME280;54257;54.496;18.412;2023-05-24T04:01:27;99613.08;;;16.42;67.67
67373;BME280;54257;54.496;18.412;2023-05-24T04:03:57;99614.46;;;16.42;67.60
67373;BME280;54257;54.496;18.412;2023-05-24T04:06:26;99617.72;;;16.43;67.64
67373;BME280;54257;54.496;18.412;2023-05-24T04:08:59;99621.35;;;16.42;67.45
67373;BME280;54257;54.496;18.412;2023-05-24T04:11:31;99626.46;;;16.35;67.86
67373;BME280;54257;54.496;18.412;2023-05-24T04:13:59;99627.09;;;16.24;67.97
67373;BME280;54257;54.496;18.412;2023-05-24T04:16:26;99628.84;;;16.22;68.22
67373;BME280;54257;54.496;18.412;2023-05-24T04:18:56;99628.16;;;16.22;68.40
67373;BME280;54257;54.496;18.412;2023-05-24T04:21:23;99622.82;;;16.22;68.67
67373;BME280;54257;54.496;18.412;2023-05-24T04:23:53;99625.91;;;16.23;68.64
67373;BME280;54257;54.496;18.412;2023-05-24T04:26:21;99623.95;;;16.26;68.44
67373;BME280;54257;54.496;18.412;2023-05-24T04:28:48;99625.15;;;16.29;68.30
67373;BME280;54257;54.496;18.412;2023-05-24T04:31:20;99624.10;;;16.30;68.13
67373;BME280;54257;54.496;18.412;2023-05-24T04:33:47;99624.92;;;16.33;68.02
67373;BME280;54257;54.496;18.412;2023-05-24T04:36:16;99630.55;;;16.37;67.70
67373;BME280;54257;54.496;18.412;2023-05-24T04:38:50;99633.29;;;16.40;67.30
67373;BME280;54257;54.496;18.412;2023-05-24T04:41:22;99633.99;;;16.39;66.95
67373;BME280;54257;54.496;18.412;2023-05-24T04:43:51;99636.94;;;16.38;66.84
67373;BME280;54257;54.496;18.412;2023-05-24T04:46:19;99636.94;;;16.37;66.70
67373;BME280;54257;54.496;18.412;2023-05-24T04:48:46;99638.14;;;16.37;66.56
67373;BME280;54257;54.496;18.412;2023-05-24T04:51:16;99639.54;;;16.37;66.35
67373;BME280;54257;54.496;18.412;2023-05-24T04:53:50;99638.83;;;16.37;66.27
67373;BME280;54257;54.496;18.412;2023-05-24T04:56:17;99643.49;;;16.36;66.02
67373;BME280;54257;54.496;18.412;2023-05-24T04:58:45;99648.00;;;16.34;66.13
67373;BME280;54257;54.496;18.412;2023-05-24T05:01:12;99650.41;;;16.35;66.38
67373;BME280;54257;54.496;18.412;2023-05-24T05:03:39;99655.37;;;16.39;66.43
67373;BME280;54257;54.496;18.412;2023-05-24T05:06:09;99657.38;;;16.43;66.56
67373;BME280;54257;54.496;18.412;2023-05-24T05:08:37;99656.84;;;16.45;66.47
67373;BME280;54257;54.496;18.412;2023-05-24T05:11:04;99660.26;;;16.47;66.25
67373;BME280;54257;54.496;18.412;2023-05-24T05:13:31;99661.08;;;16.50;66.45
67373;BME280;54257;54.496;18.412;2023-05-24T05:15:58;99662.09;;;16.53;66.37
67373;BME280;54257;54.496;18.412;2023-05-24T05:18:25;99665.15;;;16.57;66.48
67373;BME280;54257;54.496;18.412;2023-05-24T05:20:52;99666.29;;;16.60;66.47
67373;BME280;54257;54.496;18.412;2023-05-24T05:23:24;99669.91;;;16.61;66.40
67373;BME280;54257;54.496;18.412;2023-05-24T05:25:52;99675.26;;;16.60;66.36
67373;BME280;54257;54.496;18.412;2023-05-24T05:28:19;99677.38;;;16.57;66.66
67373;BME280;54257;54.496;18.412;2023-05-24T05:30:46;99676.52;;;16.57;66.79
67373;BME280;54257;54.496;18.412;2023-05-24T05:33:13;99676.70;;;16.57;66.75
67373;BME280;54257;54.496;18.412;2023-05-24T05:35:43;99680.34;;;16.56;67.12
67373;BME280;54257;54.496;18.412;2023-05-24T05:38:10;99683.29;;;16.53;66.97
67373;BME280;54257;54.496;18.412;2023-05-24T05:40:38;99685.55;;;16.51;66.93
67373;BME280;54257;54.496;18.412;2023-05-24T05:43:11;99687.31;;;16.49;66.93
67373;BME280;54257;54.496;18.412;2023-05-24T05:45:41;99685.09;;;16.47;66.89
67373;BME280;54257;54.496;18.412;2023-05-24T05:48:08;99687.16;;;16.47;67.06
67373;BME280;54257;54.496;18.412;2023-05-24T05:50:35;99687.17;;;16.47;66.96
67373;BME280;54257;54.496;18.412;2023-05-24T05:53:04;99691.98;;;16.47;67.03
67373;BME280;54257;54.496;18.412;2023-05-24T05:55:41;99694.06;;;16.47;66.84
67373;BME280;54257;54.496;18.412;2023-05-24T05:58:12;99701.84;;;16.45;66.89
67373;BME280;54257;54.496;18.412;2023-05-24T06:00:39;99701.71;;;16.41;66.69
67373;BME280;54257;54.496;18.412;2023-05-24T06:03:07;99711.05;;;16.39;66.92
67373;BME280;54257;54.496;18.412;2023-05-24T06:05:37;99708.63;;;16.39;67.05
67373;BME280;54257;54.496;18.412;2023-05-24T06:08:04;99714.43;;;16.45;67.05
67373;BME280;54257;54.496;18.412;2023-05-24T06:10:32;99718.67;;;16.49;67.21
67373;BME280;54257;54.496;18.412;2023-05-24T06:13:02;99725.20;;;16.53;67.43
67373;BME280;54257;54.496;18.412;2023-05-24T06:15:33;99722.52;;;16.59;67.33
67373;BME280;54257;54.496;18.412;2023-05-24T06:18:00;99723.32;;;16.65;67.34
67373;BME280;54257;54.496;18.412;2023-05-24T06:20:31;99727.22;;;16.74;67.20
67373;BME280;54257;54.496;18.412;2023-05-24T06:22:58;99726.12;;;16.80;67.02
67373;BME280;54257;54.496;18.412;2023-05-24T06:25:25;99727.94;;;16.85;66.88
67373;BME280;54257;54.496;18.412;2023-05-24T06:27:55;99736.56;;;16.85;66.58
67373;BME280;54257;54.496;18.412;2023-05-24T06:30:22;99738.27;;;16.87;66.78
67373;BME280;54257;54.496;18.412;2023-05-24T06:32:55;99744.15;;;16.86;66.77
67373;BME280;54257;54.496;18.412;2023-05-24T06:35:26;99750.17;;;16.88;66.66
67373;BME280;54257;54.496;18.412;2023-05-24T06:37:53;99750.26;;;16.95;66.65
67373;BME280;54257;54.496;18.412;2023-05-24T06:40:20;99750.51;;;17.01;66.60
67373;BME280;54257;54.496;18.412;2023-05-24T06:42:47;99752.13;;;17.10;66.35
67373;BME280;54257;54.496;18.412;2023-05-24T06:45:14;99754.45;;;17.17;66.33
67373;BME280;54257;54.496;18.412;2023-05-24T06:47:43;99758.97;;;17.27;66.25
67373;BME280;54257;54.496;18.412;2023-05-24T06:50:10;99764.55;;;17.35;65.94
67373;BME280;54257;54.496;18.412;2023-05-24T06:52:37;99766.69;;;17.43;65.88
67373;BME280;54257;54.496;18.412;2023-05-24T06:55:04;99765.02;;;17.51;65.63
67373;BME280;54257;54.496;18.412;2023-05-24T06:57:31;99771.44;;;17.60;65.41
67373;BME280;54257;54.496;18.412;2023-05-24T06:59:58;99774.04;;;17.71;65.32
67373;BME280;54257;54.496;18.412;2023-05-24T07:02:25;99773.50;;;17.85;65.45
67373;BME280;54257;54.496;18.412;2023-05-24T07:04:54;99780.17;;;17.99;65.29
67373;BME280;54257;54.496;18.412;2023-05-24T07:07:20;99780.17;;;18.19;65.47
67373;BME280;54257;54.496;18.412;2023-05-24T07:09:47;99782.22;;;18.50;65.48
67373;BME280;54257;54.496;18.412;2023-05-24T07:12:14;99782.52;;;18.72;64.33
67373;BME280;54257;54.496;18.412;2023-05-24T07:14:41;99784.35;;;18.85;63.66
67373;BME280;54257;54.496;18.412;2023-05-24T07:17:08;99788.86;;;19.01;63.03
67373;BME280;54257;54.496;18.412;2023-05-24T07:19:35;99788.50;;;19.10;62.14
67373;BME280;54257;54.496;18.412;2023-05-24T07:22:02;99786.37;;;19.20;61.66
67373;BME280;54257;54.496;18.412;2023-05-24T07:24:29;99789.46;;;19.30;61.13
67373;BME280;54257;54.496;18.412;2023-05-24T07:26:56;99792.50;;;19.41;60.84
67373;BME280;54257;54.496;18.412;2023-05-24T07:29:23;99795.84;;;19.55;60.79
67373;BME280;54257;54.496;18.412;2023-05-24T07:31:53;99792.13;;;19.74;60.25
67373;BME280;54257;54.496;18.412;2023-05-24T07:34:23;99794.13;;;19.92;59.67
67373;BME280;54257;54.496;18.412;2023-05-24T07:36:53;99794.89;;;20.11;59.00
67373;BME280;54257;54.496;18.412;2023-05-24T07:39:19;99791.09;;;20.30;58.47
67373;BME280;54257;54.496;18.412;2023-05-24T07:41:46;99789.93;;;20.48;57.73
67373;BME280;54257;54.496;18.412;2023-05-24T07:44:13;99785.53;;;20.70;57.26
67373;BME280;54257;54.496;18.412;2023-05-24T07:46:40;99788.16;;;20.94;56.05
67373;BME280;54257;54.496;18.412;2023-05-24T07:49:07;99787.52;;;21.16;55.45
67373;BME280;54257;54.496;18.412;2023-05-24T07:51:34;99790.98;;;21.46;54.65
67373;BME280;54257;54.496;18.412;2023-05-24T07:54:02;99794.27;;;21.63;52.57
67373;BME280;54257;54.496;18.412;2023-05-24T07:56:41;99793.79;;;21.73;51.95
67373;BME280;54257;54.496;18.412;2023-05-24T07:59:10;99793.06;;;21.85;50.86
67373;BME280;54257;54.496;18.412;2023-05-24T08:01:37;99793.71;;;21.97;50.66
67373;BME280;54257;54.496;18.412;2023-05-24T08:04:04;99796.52;;;22.12;50.43
67373;BME280;54257;54.496;18.412;2023-05-24T08:06:38;99795.10;;;22.29;50.48
67373;BME280;54257;54.496;18.412;2023-05-24T08:09:08;99798.64;;;22.52;50.36
67373;BME280;54257;54.496;18.412;2023-05-24T08:11:35;99795.88;;;22.71;50.39
67373;BME280;54257;54.496;18.412;2023-05-24T08:14:02;99800.42;;;22.91;49.55
67373;BME280;54257;54.496;18.412;2023-05-24T08:16:35;99802.95;;;23.03;47.86
67373;BME280;54257;54.496;18.412;2023-05-24T08:19:02;99807.67;;;23.07;46.36
67373;BME280;54257;54.496;18.412;2023-05-24T08:21:30;99806.00;;;23.10;46.01
67373;BME280;54257;54.496;18.412;2023-05-24T08:24:02;99804.77;;;23.14;45.13
67373;BME280;54257;54.496;18.412;2023-05-24T08:26:42;99810.05;;;23.23;44.93
67373;BME280;54257;54.496;18.412;2023-05-24T08:29:12;99808.70;;;23.35;44.98
67373;BME280;54257;54.496;18.412;2023-05-24T08:31:43;99810.48;;;23.47;45.08
67373;BME280;54257;54.496;18.412;2023-05-24T08:34:10;99813.89;;;23.64;45.23
67373;BME280;54257;54.496;18.412;2023-05-24T08:36:39;99814.29;;;23.71;44.96
67373;BME280;54257;54.496;18.412;2023-05-24T08:39:07;99814.73;;;23.82;45.10
67373;BME280;54257;54.496;18.412;2023-05-24T08:41:35;99812.18;;;23.89;44.26
67373;BME280;54257;54.496;18.412;2023-05-24T08:44:08;99809.50;;;23.94;44.48
67373;BME280;54257;54.496;18.412;2023-05-24T08:46:37;99809.11;;;24.12;44.67
67373;BME280;54257;54.496;18.412;2023-05-24T08:49:04;99812.00;;;24.27;43.96
67373;BME280;54257;54.496;18.412;2023-05-24T08:51:39;99815.03;;;24.51;44.00
67373;BME280;54257;54.496;18.412;2023-05-24T08:54:09;99815.19;;;24.79;43.61
67373;BME280;54257;54.496;18.412;2023-05-24T08:56:39;99819.14;;;25.12;43.46
67373;BME280;54257;54.496;18.412;2023-05-24T08:59:07;99812.79;;;25.40;41.02
67373;BME280;54257;54.496;18.412;2023-05-24T09:01:36;99820.15;;;25.77;40.08
67373;BME280;54257;54.496;18.412;2023-05-24T09:04:07;99819.77;;;26.06;38.81
67373;BME280;54257;54.496;18.412;2023-05-24T09:06:35;99822.66;;;26.08;37.80
67373;BME280;54257;54.496;18.412;2023-05-24T09:09:06;99824.84;;;26.14;37.66
67373;BME280;54257;54.496;18.412;2023-05-24T09:11:38;99821.19;;;26.45;36.80
67373;BME280;54257;54.496;18.412;2023-05-24T09:14:07;99822.70;;;26.60;36.09
67373;BME280;54257;54.496;18.412;2023-05-24T09:16:41;99826.20;;;26.50;35.18
67373;BME280;54257;54.496;18.412;2023-05-24T09:19:10;99827.67;;;26.41;34.45
67373;BME280;54257;54.496;18.412;2023-05-24T09:21:38;99830.14;;;26.37;35.29
67373;BME280;54257;54.496;18.412;2023-05-24T09:24:10;99827.06;;;26.53;35.03
67373;BME280;54257;54.496;18.412;2023-05-24T09:26:38;99832.06;;;26.58;34.19
67373;BME280;54257;54.496;18.412;2023-05-24T09:29:14;99838.48;;;26.66;34.45
67373;BME280;54257;54.496;18.412;2023-05-24T09:31:41;99835.27;;;26.88;35.15
67373;BME280;54257;54.496;18.412;2023-05-24T09:34:16;99835.31;;;27.07;34.22
67373;BME280;54257;54.496;18.412;2023-05-24T09:36:45;99837.95;;;27.30;33.97
67373;BME280;54257;54.496;18.412;2023-05-24T09:39:17;99833.92;;;27.55;33.54
67373;BME280;54257;54.496;18.412;2023-05-24T09:41:52;99835.67;;;27.77;32.93
67373;BME280;54257;54.496;18.412;2023-05-24T09:44:26;99839.08;;;27.98;32.84
67373;BME280;54257;54.496;18.412;2023-05-24T09:47:05;99838.52;;;28.07;32.29
67373;BME280;54257;54.496;18.412;2023-05-24T09:49:36;99844.44;;;28.11;31.96
67373;BME280;54257;54.496;18.412;2023-05-24T09:52:12;99851.03;;;28.01;31.91
67373;BME280;54257;54.496;18.412;2023-05-24T09:54:41;99848.17;;;27.80;31.83
67373;BME280;54257;54.496;18.412;2023-05-24T09:57:09;99849.39;;;27.64;31.79
67373;BME280;54257;54.496;18.412;2023-05-24T09:59:38;99852.60;;;27.41;32.05
67373;BME280;54257;54.496;18.412;2023-05-24T10:02:10;99857.38;;;27.24;32.29
67373;BME280;54257;54.496;18.412;2023-05-24T10:04:38;99859.61;;;27.12;32.36
67373;BME280;54257;54.496;18.412;2023-05-24T10:07:06;99859.44;;;26.98;32.57
67373;BME280;54257;54.496;18.412;2023-05-24T10:09:34;99864.05;;;26.87;32.47
67373;BME280;54257;54.496;18.412;2023-05-24T10:12:06;99863.18;;;26.76;33.15
67373;BME280;54257;54.496;18.412;2023-05-24T10:14:39;99864.83;;;26.72;33.16
67373;BME280;54257;54.496;18.412;2023-05-24T10:17:07;99865.61;;;26.77;32.99
67373;BME280;54257;54.496;18.412;2023-05-24T10:19:36;99866.73;;;26.82;33.22
67373;BME280;54257;54.496;18.412;2023-05-24T10:22:07;99867.79;;;26.79;33.72
67373;BME280;54257;54.496;18.412;2023-05-24T10:24:45;99868.98;;;26.80;33.39
67373;BME280;54257;54.496;18.412;2023-05-24T10:27:24;99869.37;;;26.79;33.48
67373;BME280;54257;54.496;18.412;2023-05-24T10:30:14;99873.39;;;26.86;34.04
67373;BME280;54257;54.496;18.412;2023-05-24T10:32:43;99875.33;;;27.06;34.07
67373;BME280;54257;54.496;18.412;2023-05-24T10:35:11;99873.51;;;27.27;33.49
67373;BME280;54257;54.496;18.412;2023-05-24T10:37:41;99877.21;;;27.40;32.80
67373;BME280;54257;54.496;18.412;2023-05-24T10:40:19;99875.10;;;27.53;32.46
67373;BME280;54257;54.496;18.412;2023-05-24T10:42:47;99874.29;;;27.77;32.63
67373;BME280;54257;54.496;18.412;2023-05-24T10:47:50;99869.45;;;28.47;31.85
67373;BME280;54257;54.496;18.412;2023-05-24T10:50:20;99868.64;;;28.75;31.18
67373;BME280;54257;54.496;18.412;2023-05-24T10:52:50;99866.52;;;28.96;30.41
67373;BME280;54257;54.496;18.412;2023-05-24T10:55:20;99870.09;;;29.07;30.43
67373;BME280;54257;54.496;18.412;2023-05-24T10:57:48;99865.45;;;29.16;30.88
67373;BME280;54257;54.496;18.412;2023-05-24T11:03:08;99868.11;;;29.39;30.22
67373;BME280;54257;54.496;18.412;2023-05-24T11:06:17;99871.45;;;29.47;29.95
67373;BME280;54257;54.496;18.412;2023-05-24T11:09:08;99872.84;;;29.42;29.85
67373;BME280;54257;54.496;18.412;2023-05-24T11:11:46;99872.91;;;29.29;29.86
67373;BME280;54257;54.496;18.412;2023-05-24T11:14:18;99872.36;;;29.24;29.50
67373;BME280;54257;54.496;18.412;2023-05-24T11:16:47;99871.27;;;29.33;30.03
67373;BME280;54257;54.496;18.412;2023-05-24T11:19:36;99870.54;;;29.53;29.61
67373;BME280;54257;54.496;18.412;2023-05-24T11:22:06;99870.45;;;29.66;29.58
67373;BME280;54257;54.496;18.412;2023-05-24T11:24:35;99864.81;;;29.82;29.29
67373;BME280;54257;54.496;18.412;2023-05-24T11:27:02;99868.52;;;29.93;28.59
67373;BME280;54257;54.496;18.412;2023-05-24T11:29:30;99866.58;;;29.98;28.70
67373;BME280;54257;54.496;18.412;2023-05-24T11:31:58;99871.98;;;30.05;28.62
67373;BME280;54257;54.496;18.412;2023-05-24T11:34:37;99869.63;;;30.14;28.07
67373;BME280;54257;54.496;18.412;2023-05-24T11:37:07;99870.31;;;30.17;28.32
67373;BME280;54257;54.496;18.412;2023-05-24T11:39:37;99870.38;;;30.22;27.86
67373;BME280;54257;54.496;18.412;2023-05-24T11:42:05;99872.23;;;30.28;27.21
67373;BME280;54257;54.496;18.412;2023-05-24T11:44:33;99878.92;;;30.34;27.49
67373;BME280;54257;54.496;18.412;2023-05-24T11:47:06;99881.14;;;30.45;27.72
67373;BME280;54257;54.496;18.412;2023-05-24T11:49:37;99880.02;;;30.46;26.86
67373;BME280;54257;54.496;18.412;2023-05-24T11:52:06;99880.64;;;30.45;27.26
67373;BME280;54257;54.496;18.412;2023-05-24T11:54:34;99881.38;;;30.42;27.07
67373;BME280;54257;54.496;18.412;2023-05-24T11:57:04;99883.08;;;30.50;27.25
67373;BME280;54257;54.496;18.412;2023-05-24T11:59:31;99882.85;;;30.64;27.15
67373;BME280;54257;54.496;18.412;2023-05-24T12:02:03;99882.52;;;30.69;26.38
67373;BME280;54257;54.496;18.412;2023-05-24T12:04:31;99884.63;;;30.67;26.24
67373;BME280;54257;54.496;18.412;2023-05-24T12:06:59;99884.22;;;30.68;26.13
67373;BME280;54257;54.496;18.412;2023-05-24T12:09:27;99889.09;;;30.66;26.38
67373;BME280;54257;54.496;18.412;2023-05-24T12:11:57;99891.87;;;30.67;26.87
67373;BME280;54257;54.496;18.412;2023-05-24T12:14:29;99892.79;;;30.77;26.83
67373;BME280;54257;54.496;18.412;2023-05-24T12:16:57;99888.79;;;30.78;26.55
67373;BME280;54257;54.496;18.412;2023-05-24T12:19:31;99886.10;;;30.81;26.34
67373;BME280;54257;54.496;18.412;2023-05-24T12:22:05;99888.51;;;30.88;26.87
67373;BME280;54257;54.496;18.412;2023-05-24T12:24:33;99889.91;;;30.93;25.95
67373;BME280;54257;54.496;18.412;2023-05-24T12:27:05;99890.05;;;30.96;25.40
67373;BME280;54257;54.496;18.412;2023-05-24T12:29:39;99885.66;;;30.85;25.79
67373;BME280;54257;54.496;18.412;2023-05-24T12:32:07;99887.27;;;30.92;26.64
67373;BME280;54257;54.496;18.412;2023-05-24T12:34:42;99888.38;;;31.10;26.82
67373;BME280;54257;54.496;18.412;2023-05-24T12:37:10;99888.07;;;31.14;26.47
67373;BME280;54257;54.496;18.412;2023-05-24T12:39:37;99886.96;;;31.05;26.06
67373;BME280;54257;54.496;18.412;2023-05-24T12:42:05;99886.89;;;30.98;26.51
67373;BME280;54257;54.496;18.412;2023-05-24T12:44:35;99887.48;;;31.05;26.67
67373;BME280;54257;54.496;18.412;2023-05-24T12:47:04;99889.11;;;31.12;26.64
67373;BME280;54257;54.496;18.412;2023-05-24T12:49:32;99889.19;;;31.18;26.74
67373;BME280;54257;54.496;18.412;2023-05-24T12:52:00;99887.48;;;31.13;26.24
67373;BME280;54257;54.496;18.412;2023-05-24T12:54:30;99886.77;;;31.08;25.95
67373;BME280;54257;54.496;18.412;2023-05-24T12:56:57;99883.71;;;31.08;25.91
67373;BME280;54257;54.496;18.412;2023-05-24T12:59:28;99883.84;;;31.22;26.87
67373;BME280;54257;54.496;18.412;2023-05-24T13:01:56;99883.61;;;31.43;26.23
67373;BME280;54257;54.496;18.412;2023-05-24T13:04:32;99881.77;;;31.46;25.54
67373;BME280;54257;54.496;18.412;2023-05-24T13:07:02;99882.14;;;31.56;25.69
67373;BME280;54257;54.496;18.412;2023-05-24T13:09:32;99880.25;;;31.48;26.06
67373;BME280;54257;54.496;18.412;2023-05-24T13:12:00;99877.63;;;31.35;25.88
67373;BME280;54257;54.496;18.412;2023-05-24T13:14:27;99883.27;;;31.15;25.89
67373;BME280;54257;54.496;18.412;2023-05-24T13:16:54;99883.61;;;31.12;26.10